עמוד ראשי
METAR-TAF:

METAR-TAF

שדות תעופה :

Coihaique, צ'ילה

קו רוחב: 45-35S, קו אורך: 072-07W, גובה: 310מטר

METAR: חסר

זמן: 19:41 (23:41 UTC)

תחזית

הדו"ח נערך לפני 12 שעות ו 55דקות, בשעה 10:46 UTC
תחזית בתוקף מ 15 ב 12 UTC עד 15 ב 24 UTC
רוח 4קשר מכיוון מערב/דרום-מערב
ראות 10 קילומטר או יותר
מעט עננים בגובה 2500רגל
עננים פזורים בגובה 4000רגל
זמנית מ -
15 ב 16 UTC עד 15 ב 20 UTC
רוח 2קשר עם כיוונים משתנים
ראות: 7000מטר
עננים בינוניים בגובה 1400רגל
מעונן בגובה 2500רגל
ממטרי גשם קלים,

TAF: SCCY 151046Z 1512/1524 25004KT 9999 FEW025 SCT040 TN05/1512Z TX07/1519Z TEMPO 1516/1520 VRB02KT 7000 -SHRA BKN014 OVC025

תצפיות ותחזיות מזג אוויר לגבי יותר מ- 4,000 שדות תעופה ברחבי העולם. דוחות METAR ו- TAF.

התחנות הזמינות מסומנות בנקודות צהובות ואדומות על גבי המפה.

העבר את העכבר לנקודה הצבעונית על מנת לראות את שם התחנה.

לאחר מכן, לחץ כדי לראות את תוכן ואת תחזיות מזג האוויר.

כדי לשנות את המפה: לחץ על הכפתורים הירוקים עם הפלוס השחור כדי להתקרב; על הכפתור הירוק עם המקף כדי להתרחק; או בחיצים הירוקים למפות סמוכות.


METAR-TAF: